sensor_id;sensor_type;location;lat;lon;timestamp;pressure;altitude;pressure_sealevel;temperature
34125;BMP280;20110;53.120;5.786;2023-08-07T00:00:49;101088.25;;;21.23
34125;BMP280;20110;53.120;5.786;2023-08-07T00:03:15;101090.63;;;21.28
34125;BMP280;20110;53.120;5.786;2023-08-07T00:05:48;101090.75;;;21.30
34125;BMP280;20110;53.120;5.786;2023-08-07T00:08:14;101009.09;;;20.66
34125;BMP280;20110;53.120;5.786;2023-08-07T00:10:40;101089.22;;;21.27
34125;BMP280;20110;53.120;5.786;2023-08-07T00:13:06;101058.66;;;21.04
34125;BMP280;20110;53.120;5.786;2023-08-07T00:15:32;101070.94;;;21.16
34125;BMP280;20110;53.120;5.786;2023-08-07T00:18:00;101049.28;;;21.05
34125;BMP280;20110;53.120;5.786;2023-08-07T00:20:26;101077.13;;;21.28
34125;BMP280;20110;53.120;5.786;2023-08-07T00:22:51;101079.13;;;21.28
34125;BMP280;20110;53.120;5.786;2023-08-07T00:25:17;100992.19;;;20.66
34125;BMP280;20110;53.120;5.786;2023-08-07T00:27:43;101074.44;;;21.28
34125;BMP280;20110;53.120;5.786;2023-08-07T00:30:10;101071.03;;;21.28
34125;BMP280;20110;53.120;5.786;2023-08-07T00:32:37;101051.94;;;21.14
34125;BMP280;20110;53.120;5.786;2023-08-07T00:35:05;101073.97;;;21.32
34125;BMP280;20110;53.120;5.786;2023-08-07T00:37:31;101081.97;;;21.42
34125;BMP280;20110;53.120;5.786;2023-08-07T00:39:57;101081.63;;;21.47
34125;BMP280;20110;53.120;5.786;2023-08-07T00:42:22;101090.00;;;21.51
34125;BMP280;20110;53.120;5.786;2023-08-07T00:44:49;101025.97;;;21.09
34125;BMP280;20110;53.120;5.786;2023-08-07T00:47:15;101054.91;;;21.30
34125;BMP280;20110;53.120;5.786;2023-08-07T00:49:41;101081.78;;;21.49
34125;BMP280;20110;53.120;5.786;2023-08-07T00:52:08;101083.75;;;21.49
34125;BMP280;20110;53.120;5.786;2023-08-07T00:54:35;101072.22;;;21.48
34125;BMP280;20110;53.120;5.786;2023-08-07T00:57:12;101075.91;;;21.53
34125;BMP280;20110;53.120;5.786;2023-08-07T00:59:41;101083.81;;;21.60
34125;BMP280;20110;53.120;5.786;2023-08-07T01:02:08;101074.38;;;21.50
34125;BMP280;20110;53.120;5.786;2023-08-07T01:04:35;101050.41;;;21.23
34125;BMP280;20110;53.120;5.786;2023-08-07T01:07:00;101064.53;;;21.21
34125;BMP280;20110;53.120;5.786;2023-08-07T01:09:27;101017.06;;;20.85
34125;BMP280;20110;53.120;5.786;2023-08-07T01:12:18;101067.88;;;21.10
34125;BMP280;20110;53.120;5.786;2023-08-07T01:15:04;101074.94;;;21.15
34125;BMP280;20110;53.120;5.786;2023-08-07T01:17:34;101072.22;;;21.15
34125;BMP280;20110;53.120;5.786;2023-08-07T01:20:01;101062.94;;;21.07
34125;BMP280;20110;53.120;5.786;2023-08-07T01:22:27;101067.84;;;20.99
34125;BMP280;20110;53.120;5.786;2023-08-07T01:24:53;101063.31;;;20.91
34125;BMP280;20110;53.120;5.786;2023-08-07T01:33:04;101061.53;;;20.84
34125;BMP280;20110;53.120;5.786;2023-08-07T01:35:43;101064.53;;;20.79
34125;BMP280;20110;53.120;5.786;2023-08-07T01:38:12;101050.41;;;20.69
34125;BMP280;20110;53.120;5.786;2023-08-07T01:40:40;101055.81;;;20.69
34125;BMP280;20110;53.120;5.786;2023-08-07T01:43:07;101047.75;;;20.59
34125;BMP280;20110;53.120;5.786;2023-08-07T01:45:34;101060.25;;;20.64
34125;BMP280;20110;53.120;5.786;2023-08-07T01:48:00;101036.41;;;20.51
34125;BMP280;20110;53.120;5.786;2023-08-07T01:50:26;101028.84;;;20.38
34125;BMP280;20110;53.120;5.786;2023-08-07T01:52:52;101004.22;;;20.22
34125;BMP280;20110;53.120;5.786;2023-08-07T01:55:20;101042.63;;;20.42
34125;BMP280;20110;53.120;5.786;2023-08-07T01:57:46;101003.69;;;20.14
34125;BMP280;20110;53.120;5.786;2023-08-07T02:00:12;101062.22;;;20.42
34125;BMP280;20110;53.120;5.786;2023-08-07T02:02:38;101019.88;;;20.04
34125;BMP280;20110;53.120;5.786;2023-08-07T02:05:05;101068.00;;;20.39
34125;BMP280;20110;53.120;5.786;2023-08-07T02:07:31;101041.38;;;20.24
34125;BMP280;20110;53.120;5.786;2023-08-07T02:09:57;101060.25;;;20.33
34125;BMP280;20110;53.120;5.786;2023-08-07T02:12:24;101070.88;;;20.31
34125;BMP280;20110;53.120;5.786;2023-08-07T02:14:53;101041.19;;;20.10
34125;BMP280;20110;53.120;5.786;2023-08-07T02:17:21;101078.72;;;20.27
34125;BMP280;20110;53.120;5.786;2023-08-07T02:19:50;101064.53;;;20.17
34125;BMP280;20110;53.120;5.786;2023-08-07T02:22:16;101066.16;;;20.10
34125;BMP280;20110;53.120;5.786;2023-08-07T02:24:42;101054.50;;;20.08
34125;BMP280;20110;53.120;5.786;2023-08-07T02:27:07;101061.28;;;20.19
34125;BMP280;20110;53.120;5.786;2023-08-07T02:29:33;101088.91;;;20.38
34125;BMP280;20110;53.120;5.786;2023-08-07T02:32:03;101083.91;;;20.35
34125;BMP280;20110;53.120;5.786;2023-08-07T02:34:30;101067.63;;;20.33
34125;BMP280;20110;53.120;5.786;2023-08-07T02:36:56;101073.97;;;20.37
34125;BMP280;20110;53.120;5.786;2023-08-07T02:39:22;101072.56;;;20.36
34125;BMP280;20110;53.120;5.786;2023-08-07T02:41:48;101040.72;;;20.14
34125;BMP280;20110;53.120;5.786;2023-08-07T02:44:14;101078.41;;;20.33
34125;BMP280;20110;53.120;5.786;2023-08-07T02:46:40;101075.69;;;20.42
34125;BMP280;20110;53.120;5.786;2023-08-07T02:49:06;101101.69;;;20.69
34125;BMP280;20110;53.120;5.786;2023-08-07T02:51:32;101095.56;;;20.68
34125;BMP280;20110;53.120;5.786;2023-08-07T02:53:58;101095.25;;;20.74
34125;BMP280;20110;53.120;5.786;2023-08-07T02:56:24;101113.06;;;20.88
34125;BMP280;20110;53.120;5.786;2023-08-07T02:58:49;101120.94;;;21.06
34125;BMP280;20110;53.120;5.786;2023-08-07T03:01:16;101089.00;;;20.92
34125;BMP280;20110;53.120;5.786;2023-08-07T03:03:41;101025.53;;;20.49
34125;BMP280;20110;53.120;5.786;2023-08-07T03:06:07;101117.31;;;21.13
34125;BMP280;20110;53.120;5.786;2023-08-07T03:08:33;101099.75;;;21.02
34125;BMP280;20110;53.120;5.786;2023-08-07T03:10:59;101110.63;;;21.14
34125;BMP280;20110;53.120;5.786;2023-08-07T03:13:25;101063.00;;;20.76
34125;BMP280;20110;53.120;5.786;2023-08-07T03:16:00;101105.16;;;21.02
34125;BMP280;20110;53.120;5.786;2023-08-07T03:18:26;101066.72;;;20.71
34125;BMP280;20110;53.120;5.786;2023-08-07T03:20:53;101095.19;;;20.83
34125;BMP280;20110;53.120;5.786;2023-08-07T03:23:19;101086.84;;;20.79
34125;BMP280;20110;53.120;5.786;2023-08-07T03:25:45;101081.91;;;20.76
34125;BMP280;20110;53.120;5.786;2023-08-07T03:28:10;101068.91;;;20.63
34125;BMP280;20110;53.120;5.786;2023-08-07T03:30:36;101100.44;;;20.81
34125;BMP280;20110;53.120;5.786;2023-08-07T03:33:03;101111.25;;;20.81
34125;BMP280;20110;53.120;5.786;2023-08-07T03:35:30;101091.91;;;20.64
34125;BMP280;20110;53.120;5.786;2023-08-07T03:37:56;101097.84;;;20.62
34125;BMP280;20110;53.120;5.786;2023-08-07T03:40:21;101108.81;;;20.64
34125;BMP280;20110;53.120;5.786;2023-08-07T03:42:47;101112.06;;;20.63
34125;BMP280;20110;53.120;5.786;2023-08-07T03:45:14;101103.78;;;20.39
34125;BMP280;20110;53.120;5.786;2023-08-07T03:47:39;101093.31;;;20.34
34125;BMP280;20110;53.120;5.786;2023-08-07T03:50:06;101119.94;;;20.49
34125;BMP280;20110;53.120;5.786;2023-08-07T03:52:32;101102.94;;;20.37
34125;BMP280;20110;53.120;5.786;2023-08-07T03:54:58;101136.50;;;20.65
34125;BMP280;20110;53.120;5.786;2023-08-07T03:57:25;101137.22;;;20.65
34125;BMP280;20110;53.120;5.786;2023-08-07T03:59:50;101131.22;;;20.67
34125;BMP280;20110;53.120;5.786;2023-08-07T04:02:16;101129.81;;;20.66
34125;BMP280;20110;53.120;5.786;2023-08-07T04:04:42;101117.78;;;20.57
34125;BMP280;20110;53.120;5.786;2023-08-07T04:07:08;101121.13;;;20.67
34125;BMP280;20110;53.120;5.786;2023-08-07T04:09:33;101139.19;;;20.65
34125;BMP280;20110;53.120;5.786;2023-08-07T04:11:59;101092.00;;;20.35
34125;BMP280;20110;53.120;5.786;2023-08-07T04:14:26;101123.75;;;20.56
34125;BMP280;20110;53.120;5.786;2023-08-07T04:16:51;101134.13;;;20.49
34125;BMP280;20110;53.120;5.786;2023-08-07T04:19:19;101096.34;;;20.19
34125;BMP280;20110;53.120;5.786;2023-08-07T04:21:44;101122.28;;;20.33
34125;BMP280;20110;53.120;5.786;2023-08-07T04:24:10;101130.47;;;20.35
34125;BMP280;20110;53.120;5.786;2023-08-07T04:26:40;101128.22;;;20.32
34125;BMP280;20110;53.120;5.786;2023-08-07T04:29:06;101150.63;;;20.44
34125;BMP280;20110;53.120;5.786;2023-08-07T04:31:32;101140.38;;;20.52
34125;BMP280;20110;53.120;5.786;2023-08-07T04:33:58;101151.72;;;20.50
34125;BMP280;20110;53.120;5.786;2023-08-07T04:36:24;101154.28;;;20.48
34125;BMP280;20110;53.120;5.786;2023-08-07T04:38:50;101060.09;;;19.91
34125;BMP280;20110;53.120;5.786;2023-08-07T04:41:17;101143.16;;;20.33
34125;BMP280;20110;53.120;5.786;2023-08-07T04:43:43;101152.91;;;20.38
34125;BMP280;20110;53.120;5.786;2023-08-07T04:46:09;101138.72;;;20.28
34125;BMP280;20110;53.120;5.786;2023-08-07T04:48:36;101164.00;;;20.42
34125;BMP280;20110;53.120;5.786;2023-08-07T04:51:02;101122.78;;;20.01
34125;BMP280;20110;53.120;5.786;2023-08-07T04:53:28;101112.59;;;19.99
34125;BMP280;20110;53.120;5.786;2023-08-07T04:55:54;101120.19;;;20.13
34125;BMP280;20110;53.120;5.786;2023-08-07T04:58:20;101121.75;;;20.16
34125;BMP280;20110;53.120;5.786;2023-08-07T05:00:46;101164.78;;;20.54
34125;BMP280;20110;53.120;5.786;2023-08-07T05:03:12;101169.00;;;20.67
34125;BMP280;20110;53.120;5.786;2023-08-07T05:05:38;101178.16;;;20.83
34125;BMP280;20110;53.120;5.786;2023-08-07T05:08:04;101173.59;;;20.95
34125;BMP280;20110;53.120;5.786;2023-08-07T05:10:30;101193.63;;;21.13
34125;BMP280;20110;53.120;5.786;2023-08-07T05:12:56;101175.66;;;21.27
34125;BMP280;20110;53.120;5.786;2023-08-07T05:15:25;101167.66;;;21.29
34125;BMP280;20110;53.120;5.786;2023-08-07T05:17:52;101193.56;;;21.65
34125;BMP280;20110;53.120;5.786;2023-08-07T05:20:18;101169.72;;;21.62
34125;BMP280;20110;53.120;5.786;2023-08-07T05:22:44;101128.63;;;21.42
34125;BMP280;20110;53.120;5.786;2023-08-07T05:25:10;101129.69;;;21.49
34125;BMP280;20110;53.120;5.786;2023-08-07T05:27:38;101186.13;;;21.99
34125;BMP280;20110;53.120;5.786;2023-08-07T05:30:06;101203.22;;;22.13
34125;BMP280;20110;53.120;5.786;2023-08-07T05:32:32;101202.41;;;22.22
34125;BMP280;20110;53.120;5.786;2023-08-07T05:34:58;101195.34;;;22.17
34125;BMP280;20110;53.120;5.786;2023-08-07T05:37:24;101214.44;;;22.31
34125;BMP280;20110;53.120;5.786;2023-08-07T05:39:50;101174.16;;;22.02
34125;BMP280;20110;53.120;5.786;2023-08-07T05:42:15;101226.66;;;22.32
34125;BMP280;20110;53.120;5.786;2023-08-07T05:44:41;101218.22;;;22.26
34125;BMP280;20110;53.120;5.786;2023-08-07T05:47:07;101224.78;;;22.34
34125;BMP280;20110;53.120;5.786;2023-08-07T05:49:33;101233.75;;;22.48
34125;BMP280;20110;53.120;5.786;2023-08-07T05:51:59;101230.25;;;22.57
34125;BMP280;20110;53.120;5.786;2023-08-07T05:54:24;101225.16;;;22.63
34125;BMP280;20110;53.120;5.786;2023-08-07T05:56:50;101226.25;;;22.58
34125;BMP280;20110;53.120;5.786;2023-08-07T05:59:16;101241.78;;;22.46
34125;BMP280;20110;53.120;5.786;2023-08-07T06:01:42;101251.16;;;22.34
34125;BMP280;20110;53.120;5.786;2023-08-07T06:04:08;101238.91;;;22.33
34125;BMP280;20110;53.120;5.786;2023-08-07T06:06:34;101243.97;;;22.38
34125;BMP280;20110;53.120;5.786;2023-08-07T06:09:01;101231.63;;;22.35
34125;BMP280;20110;53.120;5.786;2023-08-07T06:11:29;101250.56;;;22.35
34125;BMP280;20110;53.120;5.786;2023-08-07T06:13:55;101253.78;;;22.10
34125;BMP280;20110;53.120;5.786;2023-08-07T06:16:20;101242.34;;;22.00
34125;BMP280;20110;53.120;5.786;2023-08-07T06:18:46;101259.50;;;22.26
34125;BMP280;20110;53.120;5.786;2023-08-07T06:21:12;101255.75;;;22.43
34125;BMP280;20110;53.120;5.786;2023-08-07T06:23:38;101268.38;;;22.73
34125;BMP280;20110;53.120;5.786;2023-08-07T06:26:04;101272.50;;;22.86
34125;BMP280;20110;53.120;5.786;2023-08-07T06:28:33;101267.44;;;23.03
34125;BMP280;20110;53.120;5.786;2023-08-07T06:31:06;101270.59;;;23.12
34125;BMP280;20110;53.120;5.786;2023-08-07T06:33:32;101268.34;;;23.20
34125;BMP280;20110;53.120;5.786;2023-08-07T06:36:03;101238.31;;;23.16
34125;BMP280;20110;53.120;5.786;2023-08-07T06:38:30;101245.63;;;23.13
34125;BMP280;20110;53.120;5.786;2023-08-07T06:40:56;101280.31;;;23.40
34125;BMP280;20110;53.120;5.786;2023-08-07T06:43:22;101249.59;;;23.35
34125;BMP280;20110;53.120;5.786;2023-08-07T06:45:54;101284.50;;;23.66
34125;BMP280;20110;53.120;5.786;2023-08-07T06:48:20;101292.09;;;23.81
34125;BMP280;20110;53.120;5.786;2023-08-07T06:50:47;101307.28;;;23.49
34125;BMP280;20110;53.120;5.786;2023-08-07T06:53:14;101284.66;;;22.29
34125;BMP280;20110;53.120;5.786;2023-08-07T06:55:41;101297.16;;;21.58
34125;BMP280;20110;53.120;5.786;2023-08-07T06:58:08;101291.34;;;21.00
34125;BMP280;20110;53.120;5.786;2023-08-07T07:00:35;101303.03;;;20.83
34125;BMP280;20110;53.120;5.786;2023-08-07T07:03:01;101311.69;;;20.91
34125;BMP280;20110;53.120;5.786;2023-08-07T07:05:27;101314.75;;;21.07
34125;BMP280;20110;53.120;5.786;2023-08-07T07:07:54;101304.81;;;21.10
34125;BMP280;20110;53.120;5.786;2023-08-07T07:10:20;101305.44;;;20.89
34125;BMP280;20110;53.120;5.786;2023-08-07T07:12:46;101296.97;;;20.73
34125;BMP280;20110;53.120;5.786;2023-08-07T07:15:12;101308.19;;;20.70
34125;BMP280;20110;53.120;5.786;2023-08-07T07:17:38;101308.91;;;20.61
34125;BMP280;20110;53.120;5.786;2023-08-07T07:20:05;101307.34;;;20.67
34125;BMP280;20110;53.120;5.786;2023-08-07T07:22:31;101316.69;;;20.85
34125;BMP280;20110;53.120;5.786;2023-08-07T07:24:57;101312.25;;;20.90
34125;BMP280;20110;53.120;5.786;2023-08-07T07:27:23;101319.03;;;21.10
34125;BMP280;20110;53.120;5.786;2023-08-07T07:29:52;101325.56;;;21.17
34125;BMP280;20110;53.120;5.786;2023-08-07T07:32:18;101336.41;;;21.38
34125;BMP280;20110;53.120;5.786;2023-08-07T07:34:45;101351.75;;;21.35
34125;BMP280;20110;53.120;5.786;2023-08-07T07:37:11;101364.78;;;21.18
34125;BMP280;20110;53.120;5.786;2023-08-07T07:39:39;101347.53;;;20.73
34125;BMP280;20110;53.120;5.786;2023-08-07T07:42:07;101357.19;;;20.66
34125;BMP280;20110;53.120;5.786;2023-08-07T07:44:33;101332.22;;;20.56
34125;BMP280;20110;53.120;5.786;2023-08-07T07:47:00;101337.75;;;20.68
34125;BMP280;20110;53.120;5.786;2023-08-07T07:49:26;101348.94;;;20.83
34125;BMP280;20110;53.120;5.786;2023-08-07T07:51:52;101360.69;;;20.98
34125;BMP280;20110;53.120;5.786;2023-08-07T07:54:18;101344.88;;;21.13
34125;BMP280;20110;53.120;5.786;2023-08-07T07:56:44;101348.84;;;21.12
34125;BMP280;20110;53.120;5.786;2023-08-07T07:59:12;101357.38;;;21.18
34125;BMP280;20110;53.120;5.786;2023-08-07T08:01:37;101354.22;;;21.22
34125;BMP280;20110;53.120;5.786;2023-08-07T08:04:04;101332.16;;;20.85
34125;BMP280;20110;53.120;5.786;2023-08-07T08:06:30;101344.69;;;20.80
34125;BMP280;20110;53.120;5.786;2023-08-07T08:08:56;101357.00;;;20.93
34125;BMP280;20110;53.120;5.786;2023-08-07T08:11:22;101343.66;;;21.26
34125;BMP280;20110;53.120;5.786;2023-08-07T08:13:48;101343.94;;;21.40
34125;BMP280;20110;53.120;5.786;2023-08-07T08:16:15;101326.31;;;21.39
34125;BMP280;20110;53.120;5.786;2023-08-07T08:18:40;101369.81;;;21.64
34125;BMP280;20110;53.120;5.786;2023-08-07T08:21:06;101354.25;;;21.53
34125;BMP280;20110;53.120;5.786;2023-08-07T08:23:32;101359.84;;;21.66
34125;BMP280;20110;53.120;5.786;2023-08-07T08:25:58;101376.31;;;21.92
34125;BMP280;20110;53.120;5.786;2023-08-07T08:28:24;101362.81;;;22.13
34125;BMP280;20110;53.120;5.786;2023-08-07T08:30:50;101386.22;;;22.74
34125;BMP280;20110;53.120;5.786;2023-08-07T08:33:16;101396.16;;;22.93
34125;BMP280;20110;53.120;5.786;2023-08-07T08:35:44;101374.09;;;22.87
34125;BMP280;20110;53.120;5.786;2023-08-07T08:38:10;101386.34;;;22.88
34125;BMP280;20110;53.120;5.786;2023-08-07T08:40:38;101400.19;;;23.03
34125;BMP280;20110;53.120;5.786;2023-08-07T08:43:05;101403.56;;;23.62
34125;BMP280;20110;53.120;5.786;2023-08-07T08:45:32;101388.56;;;24.21
34125;BMP280;20110;53.120;5.786;2023-08-07T08:48:04;101400.53;;;24.55
34125;BMP280;20110;53.120;5.786;2023-08-07T08:50:32;101400.97;;;24.63
34125;BMP280;20110;53.120;5.786;2023-08-07T08:53:00;101411.22;;;24.65
34125;BMP280;20110;53.120;5.786;2023-08-07T08:55:26;101402.88;;;24.74
34125;BMP280;20110;53.120;5.786;2023-08-07T08:57:53;101413.97;;;24.92
34125;BMP280;20110;53.120;5.786;2023-08-07T09:00:21;101340.19;;;24.57
34125;BMP280;20110;53.120;5.786;2023-08-07T09:02:51;101410.97;;;25.13
34125;BMP280;20110;53.120;5.786;2023-08-07T09:05:21;101388.31;;;24.81
34125;BMP280;20110;53.120;5.786;2023-08-07T09:07:48;101405.84;;;24.92
34125;BMP280;20110;53.120;5.786;2023-08-07T09:10:16;101406.91;;;24.73
34125;BMP280;20110;53.120;5.786;2023-08-07T09:13:02;101413.84;;;24.38
34125;BMP280;20110;53.120;5.786;2023-08-07T09:15:33;101412.34;;;24.34
34125;BMP280;20110;53.120;5.786;2023-08-07T09:18:00;101394.88;;;24.26
34125;BMP280;20110;53.120;5.786;2023-08-07T09:20:26;101389.69;;;24.18
34125;BMP280;20110;53.120;5.786;2023-08-07T09:22:52;101419.94;;;24.38
34125;BMP280;20110;53.120;5.786;2023-08-07T09:25:29;101418.41;;;24.47
34125;BMP280;20110;53.120;5.786;2023-08-07T09:27:57;101418.03;;;25.18
34125;BMP280;20110;53.120;5.786;2023-08-07T09:30:28;101438.13;;;25.82
34125;BMP280;20110;53.120;5.786;2023-08-07T09:32:57;101397.22;;;25.66
34125;BMP280;20110;53.120;5.786;2023-08-07T09:35:23;101406.03;;;25.51
34125;BMP280;20110;53.120;5.786;2023-08-07T09:37:50;101431.44;;;25.42
34125;BMP280;20110;53.120;5.786;2023-08-07T09:40:17;101439.50;;;25.40
34125;BMP280;20110;53.120;5.786;2023-08-07T09:42:42;101428.09;;;25.16
34125;BMP280;20110;53.120;5.786;2023-08-07T09:45:29;101426.50;;;25.11
34125;BMP280;20110;53.120;5.786;2023-08-07T09:48:04;101444.22;;;25.39
34125;BMP280;20110;53.120;5.786;2023-08-07T09:50:32;101375.44;;;24.82
34125;BMP280;20110;53.120;5.786;2023-08-07T09:52:58;101458.84;;;24.93
34125;BMP280;20110;53.120;5.786;2023-08-07T09:55:25;101432.94;;;24.40
34125;BMP280;20110;53.120;5.786;2023-08-07T09:57:51;101454.22;;;24.31
34125;BMP280;20110;53.120;5.786;2023-08-07T10:00:18;101410.75;;;24.06
34125;BMP280;20110;53.120;5.786;2023-08-07T10:02:49;101463.28;;;24.87
34125;BMP280;20110;53.120;5.786;2023-08-07T10:05:16;101465.88;;;25.64
34125;BMP280;20110;53.120;5.786;2023-08-07T10:07:43;101441.91;;;25.90
34125;BMP280;20110;53.120;5.786;2023-08-07T10:10:10;101458.50;;;26.10
34125;BMP280;20110;53.120;5.786;2023-08-07T10:12:39;101438.13;;;26.11
34125;BMP280;20110;53.120;5.786;2023-08-07T10:15:06;101449.09;;;26.27
34125;BMP280;20110;53.120;5.786;2023-08-07T10:17:33;101439.41;;;26.24
34125;BMP280;20110;53.120;5.786;2023-08-07T10:19:59;101443.13;;;26.77
34125;BMP280;20110;53.120;5.786;2023-08-07T10:22:29;101476.25;;;28.03
34125;BMP280;20110;53.120;5.786;2023-08-07T10:24:59;101464.09;;;27.88
34125;BMP280;20110;53.120;5.786;2023-08-07T10:27:29;101451.22;;;27.22
34125;BMP280;20110;53.120;5.786;2023-08-07T10:29:59;101475.91;;;28.13
34125;BMP280;20110;53.120;5.786;2023-08-07T10:32:27;101468.91;;;28.82
34125;BMP280;20110;53.120;5.786;2023-08-07T10:34:53;101401.09;;;29.42
34125;BMP280;20110;53.120;5.786;2023-08-07T10:37:42;101429.03;;;29.38
34125;BMP280;20110;53.120;5.786;2023-08-07T10:40:11;101440.38;;;28.68
34125;BMP280;20110;53.120;5.786;2023-08-07T10:43:01;101435.47;;;29.47
34125;BMP280;20110;53.120;5.786;2023-08-07T10:45:37;101447.78;;;29.91
34125;BMP280;20110;53.120;5.786;2023-08-07T10:48:10;101484.78;;;30.16
34125;BMP280;20110;53.120;5.786;2023-08-07T10:50:56;101470.34;;;29.05
34125;BMP280;20110;53.120;5.786;2023-08-07T10:53:30;101481.19;;;28.44
34125;BMP280;20110;53.120;5.786;2023-08-07T10:56:00;101474.22;;;28.98
34125;BMP280;20110;53.120;5.786;2023-08-07T10:58:34;101444.13;;;28.59
34125;BMP280;20110;53.120;5.786;2023-08-07T11:03:52;101489.81;;;27.83
34125;BMP280;20110;53.120;5.786;2023-08-07T11:06:25;101491.94;;;27.51
34125;BMP280;20110;53.120;5.786;2023-08-07T11:08:56;101466.59;;;27.49
34125;BMP280;20110;53.120;5.786;2023-08-07T11:11:21;101471.53;;;27.70
34125;BMP280;20110;53.120;5.786;2023-08-07T11:13:47;101480.50;;;27.55
34125;BMP280;20110;53.120;5.786;2023-08-07T11:16:13;101507.00;;;27.86
34125;BMP280;20110;53.120;5.786;2023-08-07T11:18:40;101502.13;;;28.75
34125;BMP280;20110;53.120;5.786;2023-08-07T11:21:10;101491.50;;;28.83
34125;BMP280;20110;53.120;5.786;2023-08-07T11:23:40;101471.84;;;28.88
34125;BMP280;20110;53.120;5.786;2023-08-07T11:26:08;101454.53;;;28.25
34125;BMP280;20110;53.120;5.786;2023-08-07T11:28:34;101535.91;;;27.93
34125;BMP280;20110;53.120;5.786;2023-08-07T11:31:01;101504.91;;;27.35
34125;BMP280;20110;53.120;5.786;2023-08-07T11:33:28;101502.94;;;26.44
34125;BMP280;20110;53.120;5.786;2023-08-07T11:35:55;101515.78;;;25.98
34125;BMP280;20110;53.120;5.786;2023-08-07T11:38:43;101525.81;;;25.00
34125;BMP280;20110;53.120;5.786;2023-08-07T11:41:16;101544.19;;;24.88
34125;BMP280;20110;53.120;5.786;2023-08-07T11:43:42;101520.31;;;24.73
34125;BMP280;20110;53.120;5.786;2023-08-07T11:46:10;101531.97;;;24.75
34125;BMP280;20110;53.120;5.786;2023-08-07T11:48:39;101522.97;;;25.51
34125;BMP280;20110;53.120;5.786;2023-08-07T11:51:06;101493.22;;;26.39
34125;BMP280;20110;53.120;5.786;2023-08-07T11:53:35;101509.34;;;27.11
34125;BMP280;20110;53.120;5.786;2023-08-07T11:56:08;101518.09;;;27.41
34125;BMP280;20110;53.120;5.786;2023-08-07T11:58:45;101481.53;;;27.15
34125;BMP280;20110;53.120;5.786;2023-08-07T12:01:16;101480.84;;;26.67
34125;BMP280;20110;53.120;5.786;2023-08-07T12:06:37;101530.00;;;25.56
34125;BMP280;20110;53.120;5.786;2023-08-07T12:09:08;101521.69;;;24.74
34125;BMP280;20110;53.120;5.786;2023-08-07T12:11:38;101511.84;;;24.30
34125;BMP280;20110;53.120;5.786;2023-08-07T12:14:04;101507.06;;;24.42
34125;BMP280;20110;53.120;5.786;2023-08-07T12:16:35;101514.09;;;24.59
34125;BMP280;20110;53.120;5.786;2023-08-07T12:19:02;101493.94;;;25.28
34125;BMP280;20110;53.120;5.786;2023-08-07T12:21:29;101461.97;;;25.97
34125;BMP280;20110;53.120;5.786;2023-08-07T12:23:59;101521.41;;;27.22
34125;BMP280;20110;53.120;5.786;2023-08-07T12:26:25;101506.28;;;27.03
34125;BMP280;20110;53.120;5.786;2023-08-07T12:28:52;101515.13;;;27.35
34125;BMP280;20110;53.120;5.786;2023-08-07T12:31:18;101482.09;;;27.78
34125;BMP280;20110;53.120;5.786;2023-08-07T12:33:44;101514.16;;;28.30
34125;BMP280;20110;53.120;5.786;2023-08-07T12:36:10;101508.38;;;28.04
34125;BMP280;20110;53.120;5.786;2023-08-07T12:38:38;101492.56;;;28.56
34125;BMP280;20110;53.120;5.786;2023-08-07T12:41:04;101516.13;;;28.65
34125;BMP280;20110;53.120;5.786;2023-08-07T12:43:30;101543.75;;;28.73
34125;BMP280;20110;53.120;5.786;2023-08-07T12:45:56;101533.25;;;28.85
34125;BMP280;20110;53.120;5.786;2023-08-07T12:48:22;101511.00;;;28.75
34125;BMP280;20110;53.120;5.786;2023-08-07T12:50:48;101525.38;;;29.35
34125;BMP280;20110;53.120;5.786;2023-08-07T12:53:13;101514.25;;;28.89
34125;BMP280;20110;53.120;5.786;2023-08-07T12:55:39;101512.94;;;29.10
34125;BMP280;20110;53.120;5.786;2023-08-07T12:58:05;101506.00;;;28.50
34125;BMP280;20110;53.120;5.786;2023-08-07T13:00:31;101517.97;;;28.05
34125;BMP280;20110;53.120;5.786;2023-08-07T13:02:57;101493.78;;;28.16
34125;BMP280;20110;53.120;5.786;2023-08-07T13:05:24;101507.47;;;27.98
34125;BMP280;20110;53.120;5.786;2023-08-07T13:07:51;101518.06;;;28.08
34125;BMP280;20110;53.120;5.786;2023-08-07T13:10:20;101501.31;;;27.97
34125;BMP280;20110;53.120;5.786;2023-08-07T13:12:48;101522.09;;;28.24
34125;BMP280;20110;53.120;5.786;2023-08-07T13:15:16;101497.06;;;28.30
34125;BMP280;20110;53.120;5.786;2023-08-07T13:17:43;101531.50;;;28.19
34125;BMP280;20110;53.120;5.786;2023-08-07T13:20:12;101528.94;;;27.39
34125;BMP280;20110;53.120;5.786;2023-08-07T13:22:40;101530.09;;;26.87
34125;BMP280;20110;53.120;5.786;2023-08-07T13:25:08;101516.38;;;27.16
34125;BMP280;20110;53.120;5.786;2023-08-07T13:27:35;101534.84;;;27.02
34125;BMP280;20110;53.120;5.786;2023-08-07T13:30:02;101539.13;;;26.60
34125;BMP280;20110;53.120;5.786;2023-08-07T13:32:28;101536.44;;;26.03
34125;BMP280;20110;53.120;5.786;2023-08-07T13:34:55;101549.88;;;25.86
34125;BMP280;20110;53.120;5.786;2023-08-07T13:37:21;101542.19;;;25.68
34125;BMP280;20110;53.120;5.786;2023-08-07T13:39:48;101528.59;;;25.68
34125;BMP280;20110;53.120;5.786;2023-08-07T13:42:18;101554.31;;;25.79
34125;BMP280;20110;53.120;5.786;2023-08-07T13:44:44;101546.84;;;25.66
34125;BMP280;20110;53.120;5.786;2023-08-07T13:47:10;101523.56;;;25.36
34125;BMP280;20110;53.120;5.786;2023-08-07T13:49:37;101520.03;;;25.19
34125;BMP280;20110;53.120;5.786;2023-08-07T13:52:03;101489.41;;;24.80
34125;BMP280;20110;53.120;5.786;2023-08-07T13:54:29;101532.91;;;25.05
34125;BMP280;20110;53.120;5.786;2023-08-07T13:56:55;101528.69;;;24.91
34125;BMP280;20110;53.120;5.786;2023-08-07T13:59:21;101531.09;;;25.23
34125;BMP280;20110;53.120;5.786;2023-08-07T14:01:47;101480.47;;;25.16
34125;BMP280;20110;53.120;5.786;2023-08-07T14:04:13;101564.59;;;25.67
34125;BMP280;20110;53.120;5.786;2023-08-07T14:06:40;101584.16;;;25.77
34125;BMP280;20110;53.120;5.786;2023-08-07T14:09:10;101537.69;;;25.73